Time;durP1;ratioP1;P1;durP2;ratioP2;P2;SDS_P1;SDS_P2;PMS_P1;PMS_P2;Temp;Humidity;BMP_temperature;BMP_pressure;BME280_temperature;BME280_humidity;BME280_pressure;Samples;Min_cycle;Max_cycle;Signal;HPM_P1;HPM_P2
2022/04/02 00:00:56;;;;;;;36.17;10.15;;;11.40;96.90;;;;;;5052514;28;20028;-82
2022/04/02 00:03:22;;;;;;;35.13;9.90;;;11.40;96.90;;;;;;5054060;28;20045;-82
2022/04/02 00:05:48;;;;;;;46.25;10.57;;;11.30;96.80;;;;;;5052513;28;20032;-81
2022/04/02 00:08:14;;;;;;;49.15;10.43;;;11.30;96.80;;;;;;5052484;28;20029;-82
2022/04/02 00:10:39;;;;;;;33.70;9.50;;;11.30;96.60;;;;;;5053694;28;20021;-82
2022/04/02 00:13:05;;;;;;;34.33;8.50;;;11.20;96.70;;;;;;5052519;28;20036;-82
2022/04/02 00:15:30;;;;;;;48.63;10.32;;;11.20;96.60;;;;;;5053878;28;20044;-82
2022/04/02 00:17:56;;;;;;;31.58;8.95;;;11.20;96.60;;;;;;5053531;28;20049;-82
2022/04/02 00:20:22;;;;;;;37.00;8.82;;;11.10;96.60;;;;;;5053636;28;20017;-82
2022/04/02 00:25:32;;;;;;;34.78;9.60;;;11.00;96.60;;;;;;5054070;28;20040;-82
2022/04/02 00:27:58;;;;;;;27.42;9.43;;;11.00;96.60;;;;;;5053603;28;20111;-82
2022/04/02 00:30:24;;;;;;;40.85;10.80;;;11.00;96.60;;;;;;5052255;28;20057;-82
2022/04/02 00:32:49;;;;;;;36.33;9.85;;;10.90;96.50;;;;;;5052250;28;20148;-82
2022/04/02 00:35:15;;;;;;;37.55;10.45;;;10.80;96.50;;;;;;5053391;28;20535;-81
2022/04/02 00:37:41;;;;;;;45.75;12.77;;;10.80;96.60;;;;;;5053681;28;20036;-82
2022/04/02 00:40:08;;;;;;;39.50;11.15;;;10.80;96.70;;;;;;5055132;28;20063;-82
2022/04/02 00:42:34;;;;;;;39.42;10.63;;;10.70;96.70;;;;;;5057676;28;20078;-82
2022/04/02 00:44:59;;;;;;;39.03;10.68;;;10.70;96.80;;;;;;5057353;28;20519;-82
2022/04/02 00:47:26;;;;;;;34.55;10.70;;;10.60;96.70;;;;;;5056043;28;20025;-82
2022/04/02 00:49:53;;;;;;;42.60;11.35;;;10.60;96.70;;;;;;5057628;28;20356;-81
2022/04/02 00:52:20;;;;;;;30.63;10.38;;;10.50;96.80;;;;;;5056320;28;20410;-81
2022/04/02 00:54:49;;;;;;;35.60;12.05;;;10.60;97.00;;;;;;5057035;28;20021;-82
2022/04/02 00:57:16;;;;;;;33.13;10.55;;;10.50;97.00;;;;;;5056862;28;20494;-82
2022/04/02 00:59:43;;;;;;;37.13;9.70;;;10.40;97.00;;;;;;5057024;28;20525;-82
2022/04/02 01:02:09;;;;;;;28.52;9.73;;;10.40;97.10;;;;;;5055715;28;20386;-82
2022/04/02 01:04:37;;;;;;;42.47;11.90;;;10.40;97.30;;;;;;5057314;28;20028;-82
2022/04/02 01:07:03;;;;;;;43.33;13.05;;;10.40;97.10;;;;;;5056640;28;20025;-82
2022/04/02 01:09:29;;;;;;;46.40;12.52;;;10.40;97.00;;;;;;5055353;28;20032;-82
2022/04/02 01:11:56;;;;;;;42.63;13.80;;;10.30;96.90;;;;;;5055700;28;20116;-81
2022/04/02 01:14:24;;;;;;;40.33;12.70;;;10.30;96.90;;;;;;5056531;28;20155;-81
2022/04/02 01:16:50;;;;;;;48.00;13.52;;;10.30;96.90;;;;;;5056497;28;20055;-81
2022/04/02 01:19:16;;;;;;;46.28;15.88;;;10.20;96.90;;;;;;5055275;28;20041;-82
2022/04/02 01:21:48;;;;;;;40.00;13.55;;;10.20;96.90;;;;;;5055355;28;20550;-82
2022/04/02 01:24:14;;;;;;;46.50;13.45;;;10.20;97.00;;;;;;5055174;28;20032;-82
2022/04/02 01:26:41;;;;;;;38.15;12.75;;;10.10;97.00;;;;;;5055103;28;20025;-81
2022/04/02 01:29:09;;;;;;;38.90;12.70;;;10.10;97.00;;;;;;5054953;28;20031;-81
2022/04/02 01:31:37;;;;;;;43.42;11.57;;;10.10;96.90;;;;;;5056471;28;20036;-82
2022/04/02 01:34:02;;;;;;;36.78;11.35;;;10.10;97.00;;;;;;5056270;28;20032;-82
2022/04/02 01:36:30;;;;;;;33.92;10.23;;;10.00;97.00;;;;;;5056692;28;20025;-82
2022/04/02 01:38:55;;;;;;;35.83;10.63;;;10.00;97.00;;;;;;5054727;28;20029;-82
2022/04/02 01:41:21;;;;;;;37.75;9.93;;;10.00;97.00;;;;;;5056059;28;20582;-82
2022/04/02 01:43:49;;;;;;;44.20;9.82;;;10.00;96.80;;;;;;5054701;28;20025;-81
2022/04/02 01:46:15;;;;;;;33.70;9.23;;;9.90;96.90;;;;;;5054964;28;20021;-81
2022/04/02 01:48:42;;;;;;;39.85;10.48;;;9.90;97.00;;;;;;5055303;28;20031;-81
2022/04/02 01:51:09;;;;;;;42.85;11.30;;;9.90;97.00;;;;;;5055647;28;20021;-82
2022/04/02 01:53:34;;;;;;;36.38;9.70;;;9.80;96.90;;;;;;5054935;28;20029;-82
2022/04/02 01:56:01;;;;;;;36.22;9.98;;;9.80;96.80;;;;;;5055805;28;20106;-82
2022/04/02 01:58:27;;;;;;;34.40;10.73;;;9.80;96.60;;;;;;5038051;28;20036;-82
2022/04/02 02:00:54;;;;;;;39.85;10.77;;;9.80;96.60;;;;;;5054199;28;20426;-82
2022/04/02 02:03:20;;;;;;;34.33;10.48;;;9.70;96.60;;;;;;5054866;28;20029;-82
2022/04/02 02:05:46;;;;;;;34.42;10.52;;;9.60;96.70;;;;;;5055657;28;20067;-82
2022/04/02 02:08:13;;;;;;;36.38;10.32;;;9.60;96.80;;;;;;5037851;28;20479;-82
2022/04/02 02:10:38;;;;;;;46.60;12.93;;;9.50;96.90;;;;;;5054647;28;20048;-82
2022/04/02 02:13:05;;;;;;;46.08;14.18;;;9.50;97.00;;;;;;5050597;28;20154;-81
2022/04/02 02:15:31;;;;;;;37.75;11.68;;;9.40;97.20;;;;;;5035863;28;20478;-82
2022/04/02 02:17:57;;;;;;;49.78;12.73;;;9.30;97.30;;;;;;5035298;28;20050;-82
2022/04/02 02:20:24;;;;;;;43.42;12.30;;;9.20;97.50;;;;;;5034074;28;20025;-81
2022/04/02 02:22:50;;;;;;;43.38;13.52;;;9.10;97.60;;;;;;5038645;28;20368;-81
2022/04/02 02:25:16;;;;;;;51.88;14.75;;;9.10;97.80;;;;;;5053873;28;20128;-81
2022/04/02 02:27:45;;;;;;;40.05;11.73;;;9.00;98.00;;;;;;5053883;28;20086;-82
2022/04/02 02:30:15;;;;;;;33.65;10.73;;;8.90;98.20;;;;;;5055270;28;20074;-81
2022/04/02 02:32:41;;;;;;;38.88;11.07;;;8.90;98.40;;;;;;5056069;28;20028;-82
2022/04/02 02:38:11;;;;;;;28.33;9.55;;;8.80;98.70;;;;;;5055553;28;20430;-81
2022/04/02 02:40:38;;;;;;;39.67;10.70;;;8.80;98.70;;;;;;5053559;28;20063;-82
2022/04/02 02:43:05;;;;;;;30.33;10.25;;;8.70;98.70;;;;;;5053970;28;20091;-81
2022/04/02 02:45:31;;;;;;;35.88;10.13;;;8.70;98.80;;;;;;5053357;28;20419;-81
2022/04/02 02:47:58;;;;;;;42.58;11.70;;;8.70;98.90;;;;;;5053686;28;20029;-81
2022/04/02 02:50:24;;;;;;;38.10;12.07;;;8.60;99.10;;;;;;5053648;28;20036;-81
2022/04/02 02:52:49;;;;;;;39.47;10.73;;;8.50;99.20;;;;;;5053458;28;20395;-82
2022/04/02 02:55:18;;;;;;;37.35;11.18;;;8.50;99.60;;;;;;5053148;28;20029;-82
2022/04/02 02:57:45;;;;;;;53.92;12.45;;;8.50;99.70;;;;;;5054949;28;20025;-81
2022/04/02 03:00:14;;;;;;;33.80;10.98;;;8.40;99.70;;;;;;5054696;28;20452;-81
2022/04/02 03:02:40;;;;;;;41.83;10.30;;;8.40;99.90;;;;;;5052593;28;20035;-82
2022/04/02 03:05:11;;;;;;;30.30;10.40;;;8.30;99.90;;;;;;5053324;28;20021;-81
2022/04/02 03:07:51;;;;;;;39.08;11.45;;;8.30;99.90;;;;;;5053116;28;20025;-81
2022/04/02 03:10:20;;;;;;;42.83;10.57;;;8.20;99.90;;;;;;5054787;28;20094;-81
2022/04/02 03:12:48;;;;;;;33.80;10.82;;;8.20;99.90;;;;;;5052977;28;20025;-81
2022/04/02 03:15:18;;;;;;;34.38;11.07;;;8.20;99.90;;;;;;5054461;28;20032;-81
2022/04/02 03:17:44;;;;;;;;;;;8.20;99.90;;;;;;5053279;28;20045;-81
2022/04/02 03:20:14;;;;;;;45.10;11.98;;;8.10;99.90;;;;;;5053401;28;19951;-81
2022/04/02 03:22:41;;;;;;;44.92;11.98;;;8.10;99.90;;;;;;5054763;28;20028;-81
2022/04/02 03:25:09;;;;;;;42.90;12.05;;;8.10;99.90;;;;;;5054762;28;20057;-81
2022/04/02 03:27:35;;;;;;;44.63;11.73;;;8.10;99.90;;;;;;5052986;28;20439;-81
2022/04/02 03:30:04;;;;;;;43.20;12.15;;;8.10;99.90;;;;;;5053252;28;20060;-82
2022/04/02 03:32:30;;;;;;;45.63;11.40;;;8.10;99.90;;;;;;5052631;28;20025;-81
2022/04/02 03:34:59;;;;;;;45.40;11.30;;;8.10;99.90;;;;;;5053937;28;20389;-81
2022/04/02 03:37:25;;;;;;;39.90;11.68;;;8.10;99.90;;;;;;5052502;28;20480;-81
2022/04/02 03:39:52;;;;;;;30.73;9.68;;;8.10;99.90;;;;;;5052680;28;20073;-81
2022/04/02 03:42:20;;;;;;;46.33;11.85;;;8.10;99.90;;;;;;5054392;28;20031;-81
2022/04/02 03:44:46;;;;;;;44.60;10.73;;;8.10;99.90;;;;;;5052988;28;20380;-81
2022/04/02 03:47:12;;;;;;;35.58;10.00;;;8.10;99.90;;;;;;5052143;28;20025;-81
2022/04/02 03:49:42;;;;;;;40.42;12.35;;;8.20;99.90;;;;;;5053931;28;20032;-81
2022/04/02 03:52:09;;;;;;;;;;;8.30;99.90;;;;;;5052992;28;20082;-81
2022/04/02 03:54:36;;;;;;;28.17;8.45;;;8.40;99.90;;;;;;5052417;28;19912;-81
2022/04/02 03:57:13;;;;;;;41.13;9.38;;;8.40;99.90;;;;;;5036196;28;20041;-81
2022/04/02 03:59:40;;;;;;;36.97;8.88;;;8.60;99.90;;;;;;5051863;28;20499;-81
2022/04/02 04:02:07;;;;;;;31.52;8.75;;;8.70;99.90;;;;;;5051930;28;20082;-81
2022/04/02 04:04:33;;;;;;;36.88;9.20;;;8.80;99.90;;;;;;5051908;28;20463;-82
2022/04/02 04:06:59;;;;;;;30.45;10.23;;;8.90;99.90;;;;;;5053228;28;20076;-82
2022/04/02 04:09:25;;;;;;;43.80;10.43;;;9.00;99.90;;;;;;5052242;28;20029;-82
2022/04/02 04:11:54;;;;;;;34.08;11.27;;;9.10;99.90;;;;;;5053524;28;20041;-81
2022/04/02 04:14:20;;;;;;;40.92;11.32;;;9.10;99.90;;;;;;5035844;28;20024;-82
2022/04/02 04:16:48;;;;;;;34.60;10.15;;;9.20;99.90;;;;;;5035324;28;20036;-81
2022/04/02 04:19:16;;;;;;;29.08;8.70;;;9.30;99.90;;;;;;5052124;28;20049;-81
2022/04/02 04:21:43;;;;;;;27.23;8.88;;;9.40;99.90;;;;;;5052291;28;20029;-81
2022/04/02 04:24:09;;;;;;;31.60;9.57;;;9.50;99.90;;;;;;5052226;28;20029;-81
2022/04/02 04:26:38;;;;;;;35.45;9.50;;;9.60;99.60;;;;;;5052278;28;20096;-81
2022/04/02 04:29:04;;;;;;;39.58;8.68;;;9.70;99.20;;;;;;5053740;28;20029;-82
2022/04/02 04:31:30;;;;;;;38.45;9.20;;;9.70;99.00;;;;;;5053137;28;20032;-81
2022/04/02 04:33:56;;;;;;;30.30;8.13;;;9.80;98.80;;;;;;5053201;28;20492;-81
2022/04/02 04:36:22;;;;;;;31.65;9.80;;;9.80;98.50;;;;;;5052220;28;20036;-82
2022/04/02 04:38:49;;;;;;;37.35;10.55;;;9.90;98.50;;;;;;5052966;28;20033;-82
2022/04/02 04:41:17;;;;;;;31.05;10.05;;;10.00;98.10;;;;;;5052357;28;20028;-82
2022/04/02 04:43:46;;;;;;;35.50;11.10;;;10.10;97.90;;;;;;5052397;28;20021;-82
2022/04/02 04:46:12;;;;;;;32.10;9.43;;;10.20;97.70;;;;;;5053232;28;20025;-82
2022/04/02 04:48:40;;;;;;;33.17;9.23;;;10.20;97.40;;;;;;5035415;28;20273;-82
2022/04/02 04:51:07;;;;;;;33.55;8.82;;;10.20;97.30;;;;;;5053117;28;20033;-82
2022/04/02 04:53:32;;;;;;;35.60;8.60;;;10.20;97.50;;;;;;5053262;28;20037;-81
2022/04/02 04:55:58;;;;;;;34.58;9.23;;;10.20;97.70;;;;;;5053454;28;20021;-82
2022/04/02 04:58:25;;;;;;;33.28;9.70;;;10.30;97.70;;;;;;5051777;28;20382;-82
2022/04/02 05:00:53;;;;;;;25.88;8.02;;;10.40;97.60;;;;;;5051899;28;20025;-82
2022/04/02 05:03:20;;;;;;;39.83;8.88;;;10.50;97.50;;;;;;5053166;28;20035;-82
2022/04/02 05:05:46;;;;;;;35.47;9.40;;;10.60;97.40;;;;;;5051804;28;20124;-82
2022/04/02 05:08:13;;;;;;;34.92;8.52;;;10.80;97.20;;;;;;5051641;28;20040;-82
2022/04/02 05:10:40;;;;;;;36.75;8.30;;;10.90;96.70;;;;;;5053282;28;20025;-83
2022/04/02 05:13:08;;;;;;;32.95;8.20;;;11.00;96.90;;;;;;5053066;28;20032;-82
2022/04/02 05:15:40;;;;;;;39.88;9.55;;;11.20;96.60;;;;;;5051502;28;20036;-82
2022/04/02 05:18:06;;;;;;;30.98;8.25;;;11.30;96.20;;;;;;5051425;28;20056;-82
2022/04/02 05:20:32;;;;;;;24.90;7.25;;;11.30;96.00;;;;;;5053193;28;20032;-82
2022/04/02 05:22:58;;;;;;;33.65;8.52;;;11.40;96.20;;;;;;5051394;28;20570;-82
2022/04/02 05:25:24;;;;;;;34.65;8.50;;;11.40;96.30;;;;;;5052012;28;20383;-82
2022/04/02 05:27:49;;;;;;;36.95;11.15;;;11.50;95.90;;;;;;5056409;28;20464;-82
2022/04/02 05:30:17;;;;;;;28.60;8.48;;;11.70;95.50;;;;;;5055271;28;20032;-83
2022/04/02 05:32:42;;;;;;;28.73;8.35;;;11.80;94.50;;;;;;5056196;28;20032;-82
2022/04/02 05:35:08;;;;;;;34.78;9.55;;;11.80;94.50;;;;;;5056308;28;20029;-83
2022/04/02 05:37:34;;;;;;;32.83;7.72;;;11.80;94.50;;;;;;5054398;28;20025;-82
2022/04/02 05:40:02;;;;;;;32.10;9.20;;;11.80;94.60;;;;;;5054844;28;20025;-83
2022/04/02 05:42:28;;;;;;;34.72;8.82;;;11.80;94.40;;;;;;5056279;28;20028;-83
2022/04/02 05:44:54;;;;;;;39.28;9.82;;;11.90;94.00;;;;;;5054827;28;20017;-83
2022/04/02 05:47:20;;;;;;;42.95;10.13;;;11.90;93.70;;;;;;5054766;28;20028;-83
2022/04/02 05:49:47;;;;;;;36.67;9.50;;;11.90;93.80;;;;;;5054671;28;20029;-82
2022/04/02 05:52:13;;;;;;;35.80;8.77;;;12.00;94.10;;;;;;5054905;28;20384;-83
2022/04/02 05:54:39;;;;;;;31.30;9.32;;;12.00;93.90;;;;;;5054945;28;20471;-83
2022/04/02 05:57:05;;;;;;;31.50;8.90;;;12.10;93.40;;;;;;5054163;28;20036;-83
2022/04/02 05:59:31;;;;;;;33.40;10.20;;;12.00;93.60;;;;;;5053772;28;20025;-83
2022/04/02 06:01:56;;;;;;;36.60;10.13;;;12.00;93.50;;;;;;5035435;28;20036;-82
2022/04/02 16:18:11;;;;;;;16.40;10.82;;;6.70;99.90;;;;;;5111954;27;20398;-86
2022/04/02 16:21:14;;;;;;;18.50;11.95;;;6.60;99.90;;;;;;5111804;28;20028;-84
2022/04/02 16:23:40;;;;;;;15.57;9.90;;;6.60;99.90;;;;;;5110488;28;20052;-85
2022/04/02 16:26:09;;;;;;;16.70;10.30;;;6.70;99.90;;;;;;5110374;28;20109;-85
2022/04/02 16:28:38;;;;;;;13.50;9.77;;;6.70;99.90;;;;;;5111513;28;20049;-86
2022/04/02 16:31:07;;;;;;;13.27;8.50;;;6.70;99.90;;;;;;5109994;28;20024;-86
2022/04/02 16:33:34;;;;;;;15.65;8.45;;;6.70;99.90;;;;;;5110552;28;20050;-86
2022/04/02 16:36:08;;;;;;;19.08;11.73;;;6.70;99.90;;;;;;5109950;28;20030;-85
2022/04/02 16:39:01;;;;;;;14.00;9.85;;;6.80;99.90;;;;;;5111326;28;20031;-85
2022/04/02 16:41:34;;;;;;;16.13;9.70;;;6.80;99.90;;;;;;5110343;28;20077;-85
2022/04/02 16:44:25;;;;;;;15.40;9.95;;;6.80;99.90;;;;;;5110162;28;20016;-86
2022/04/02 16:46:55;;;;;;;12.07;8.05;;;6.80;99.90;;;;;;5111476;28;20524;-85
2022/04/02 16:49:22;;;;;;;11.88;7.53;;;6.80;99.90;;;;;;5111369;28;20077;-86
2022/04/02 16:51:51;;;;;;;21.35;13.40;;;6.80;99.90;;;;;;5110245;28;20028;-87
2022/04/02 16:54:17;;;;;;;18.38;11.77;;;6.70;99.90;;;;;;5109984;28;20393;-86
2022/04/02 16:56:43;;;;;;;26.17;18.10;;;6.70;99.90;;;;;;5111303;28;20028;-86
2022/04/02 16:59:10;;;;;;;21.75;14.00;;;6.70;99.90;;;;;;5109933;28;20111;-87
2022/04/02 17:01:44;;;;;;;12.23;8.70;;;6.70;99.90;;;;;;5109929;28;20069;-87
2022/04/02 17:04:23;;;;;;;9.50;6.50;;;6.60;99.90;;;;;;5110936;28;20027;-86
2022/04/02 17:07:04;;;;;;;12.57;9.40;;;6.80;99.90;;;;;;5110039;28;20048;-86
2022/04/02 17:09:30;;;;;;;8.43;6.88;;;6.70;99.90;;;;;;5110942;28;20020;-85
2022/04/02 17:11:57;;;;;;;9.50;6.60;;;6.70;99.90;;;;;;5110589;28;20389;-84
2022/04/02 17:14:35;;;;;;;8.40;5.88;;;6.70;99.90;;;;;;5109124;28;20034;-85
2022/04/02 17:17:02;;;;;;;8.98;5.85;;;6.70;99.90;;;;;;5109140;28;20101;-86
2022/04/02 17:19:28;;;;;;;6.43;5.30;;;6.70;99.90;;;;;;5111073;28;20519;-86
2022/04/02 17:21:58;;;;;;;6.82;5.07;;;6.70;99.90;;;;;;5109837;28;20035;-86
2022/04/02 17:24:25;;;;;;;7.30;5.38;;;6.70;99.90;;;;;;5110972;28;20073;-85
2022/04/02 17:27:05;;;;;;;6.88;5.00;;;6.60;99.90;;;;;;5109301;28;20038;-86
2022/04/02 17:29:33;;;;;;;21.33;15.05;;;6.60;99.90;;;;;;5096664;28;20032;-86
2022/04/02 17:32:12;;;;;;;23.23;17.40;;;6.60;99.90;;;;;;5095737;28;20028;-87
2022/04/02 17:34:44;;;;;;;8.15;6.47;;;6.60;99.90;;;;;;5097085;28;20020;-86
2022/04/02 17:37:11;;;;;;;6.78;5.20;;;6.70;99.90;;;;;;5095845;28;20024;-87
2022/04/02 17:39:59;;;;;;;8.52;5.70;;;6.60;99.90;;;;;;5096707;28;20020;-87
2022/04/02 17:42:38;;;;;;;6.53;4.97;;;6.60;99.90;;;;;;5095732;28;20024;-86
2022/04/02 17:45:16;;;;;;;9.40;7.00;;;6.60;99.90;;;;;;5095522;28;20382;-86
2022/04/02 17:47:42;;;;;;;8.55;7.10;;;6.60;99.90;;;;;;5095419;28;20028;-87
2022/04/02 17:50:14;;;;;;;7.35;5.07;;;6.60;99.90;;;;;;5096793;28;20053;-85
2022/04/02 17:52:57;;;;;;;7.25;5.43;;;6.60;99.90;;;;;;5095612;28;20021;-88
2022/04/02 17:55:39;;;;;;;15.70;10.20;;;6.50;99.90;;;;;;5096749;28;20031;-90
2022/04/02 17:58:22;;;;;;;8.25;6.38;;;6.60;99.90;;;;;;5096023;28;20082;-90
2022/04/02 18:00:54;;;;;;;146.95;71.55;;;6.50;99.90;;;;;;5095583;28;20025;-89
2022/04/02 18:03:43;;;;;;;386.08;151.55;;;6.50;99.90;;;;;;5095522;28;20077;-90
2022/04/02 18:06:21;;;;;;;162.10;57.28;;;6.50;99.90;;;;;;5095500;28;20020;-90
2022/04/02 18:08:47;;;;;;;1999.90;741.58;;;6.50;99.90;;;;;;5096443;28;20028;-89
2022/04/02 18:11:13;;;;;;;307.42;104.32;;;6.60;99.90;;;;;;5095356;28;20051;-91
2022/04/02 18:13:47;;;;;;;188.07;63.90;;;6.60;99.90;;;;;;5095409;28;20046;-91
2022/04/02 18:16:14;;;;;;;349.25;116.65;;;6.60;99.90;;;;;;5094756;28;20075;-89
2022/04/02 18:18:41;;;;;;;699.08;304.80;;;6.60;99.90;;;;;;5095195;28;20016;-90
2022/04/02 18:21:07;;;;;;;225.30;81.00;;;6.60;99.90;;;;;;5094843;28;20024;-90
2022/04/02 18:23:33;;;;;;;557.95;241.50;;;6.60;99.90;;;;;;5096130;28;20419;-90
2022/04/02 18:25:59;;;;;;;145.88;58.25;;;6.50;99.90;;;;;;5095211;28;20039;-90
2022/04/02 18:28:26;;;;;;;66.90;34.78;;;6.60;99.90;;;;;;5094933;28;20024;-89
2022/04/02 18:30:52;;;;;;;217.18;82.57;;;6.50;99.90;;;;;;5095960;28;20020;-89
2022/04/02 18:33:19;;;;;;;210.75;76.28;;;6.50;99.90;;;;;;5094955;28;20531;-88
2022/04/02 18:35:44;;;;;;;89.90;40.83;;;6.60;99.90;;;;;;5094669;28;20046;-88
2022/04/02 18:38:10;;;;;;;38.90;18.83;;;6.60;99.90;;;;;;5094851;28;20471;-88
2022/04/02 18:40:39;;;;;;;32.47;17.75;;;6.50;99.90;;;;;;5093849;28;20081;-88
2022/04/02 18:43:06;;;;;;;259.77;115.80;;;6.40;99.90;;;;;;5095823;28;20016;-88
2022/04/02 18:45:32;;;;;;;560.15;294.70;;;6.50;99.90;;;;;;5095202;28;20050;-88
2022/04/02 18:47:58;;;;;;;375.38;180.23;;;6.50;99.90;;;;;;5094432;28;20027;-88
2022/04/02 18:50:24;;;;;;;102.43;53.38;;;6.60;99.90;;;;;;5095787;28;20028;-88
2022/04/02 18:52:49;;;;;;;183.45;63.08;;;6.60;99.90;;;;;;5094418;28;20024;-87
2022/04/02 18:55:17;;;;;;;11.38;7.22;;;6.60;99.90;;;;;;5095663;28;20059;-88
2022/04/02 18:57:44;;;;;;;53.42;29.48;;;6.60;99.90;;;;;;5094250;28;20024;-88
2022/04/02 19:00:10;;;;;;;19.35;13.35;;;6.50;99.90;;;;;;5094367;28;20020;-88
2022/04/02 19:02:35;;;;;;;11.35;8.63;;;6.50;99.90;;;;;;5094376;28;20028;-88
2022/04/02 19:05:02;;;;;;;14.57;11.73;;;6.40;99.90;;;;;;5094353;28;20327;-88
2022/04/02 19:07:28;;;;;;;9.07;7.22;;;6.50;99.90;;;;;;5094264;28;20047;-88
2022/04/02 19:09:55;;;;;;;11.02;7.85;;;6.50;99.90;;;;;;5094042;28;20135;-88
2022/04/02 19:12:21;;;;;;;11.70;7.90;;;6.50;99.90;;;;;;5093979;28;20363;-86
2022/04/02 19:14:47;;;;;;;10.20;7.28;;;6.50;99.90;;;;;;5095269;28;20039;-87
2022/04/02 19:17:13;;;;;;;9.75;6.78;;;6.60;99.90;;;;;;5093722;28;20052;-87
2022/04/02 19:19:39;;;;;;;11.40;7.30;;;6.60;99.90;;;;;;5093743;28;20020;-88
2022/04/02 19:22:05;;;;;;;8.75;6.60;;;6.60;99.90;;;;;;5095023;28;20024;-87
2022/04/02 19:24:32;;;;;;;13.65;8.75;;;6.60;99.90;;;;;;5094112;28;20421;-88
2022/04/02 19:26:58;;;;;;;12.65;8.30;;;6.60;99.90;;;;;;5093979;28;20039;-87
2022/04/02 19:29:24;;;;;;;11.75;6.82;;;6.60;99.90;;;;;;5094751;28;20032;-87
2022/04/02 19:31:50;;;;;;;13.95;7.40;;;6.50;99.90;;;;;;5093576;28;20028;-88
2022/04/02 19:34:16;;;;;;;14.27;7.88;;;6.40;99.90;;;;;;5093715;28;20127;-88
2022/04/02 19:36:42;;;;;;;11.27;7.30;;;6.40;99.90;;;;;;5093595;28;20111;-88
2022/04/02 19:39:09;;;;;;;78.05;44.03;;;6.30;99.90;;;;;;5094807;28;20471;-87
2022/04/02 19:41:38;;;;;;;15.18;9.65;;;6.30;99.90;;;;;;5093465;28;20027;-88
2022/04/02 19:44:05;;;;;;;13.15;8.20;;;6.30;99.90;;;;;;5093394;28;20489;-88
2022/04/02 19:46:31;;;;;;;521.08;273.83;;;6.30;99.90;;;;;;5094165;28;20035;-87
2022/04/02 19:48:59;;;;;;;575.45;281.75;;;6.30;99.90;;;;;;5093281;28;20024;-88
2022/04/02 19:51:28;;;;;;;360.15;157.25;;;6.40;99.90;;;;;;5094404;28;20023;-87
2022/04/02 19:53:54;;;;;;;239.18;70.15;;;6.40;99.90;;;;;;5093596;28;20503;-87
2022/04/02 19:56:20;;;;;;;39.03;18.88;;;6.20;99.90;;;;;;5093145;28;20031;-87
2022/04/02 19:58:46;;;;;;;501.73;265.30;;;6.20;99.90;;;;;;5093035;28;20024;-87
2022/04/02 20:01:12;;;;;;;41.45;22.27;;;6.20;99.90;;;;;;5093437;28;20028;-87
2022/04/02 20:03:38;;;;;;;172.13;73.68;;;6.20;99.90;;;;;;5093466;28;20033;-87
2022/04/02 20:06:05;;;;;;;243.43;51.50;;;6.20;99.90;;;;;;5093131;28;20066;-87
2022/04/02 20:08:33;;;;;;;33.47;15.18;;;6.20;99.90;;;;;;5092260;28;20058;-87
2022/04/02 20:10:59;;;;;;;307.88;144.13;;;6.10;99.90;;;;;;5092078;28;20381;-87
2022/04/02 20:13:25;;;;;;;28.92;16.02;;;6.10;99.90;;;;;;5093924;28;20538;-87
2022/04/02 20:15:51;;;;;;;164.23;79.57;;;6.10;99.90;;;;;;5093397;28;20067;-86
2022/04/02 20:18:18;;;;;;;10.68;7.10;;;6.10;99.90;;;;;;5093474;28;20107;-86
2022/04/02 20:20:45;;;;;;;11.75;7.53;;;6.20;99.90;;;;;;5092424;28;20031;-87
2022/04/02 20:23:11;;;;;;;8.48;5.60;;;6.10;99.90;;;;;;5092234;28;20478;-87
2022/04/02 20:25:37;;;;;;;8.98;7.38;;;6.10;99.90;;;;;;5092211;28;20054;-86
2022/04/02 20:28:05;;;;;;;14.10;9.15;;;6.20;99.90;;;;;;5093417;28;20020;-86
2022/04/02 20:30:32;;;;;;;6.47;5.35;;;6.30;99.90;;;;;;5092075;28;20316;-86
2022/04/02 20:32:58;;;;;;;27.33;19.13;;;6.20;99.90;;;;;;5092451;28;20390;-86
2022/04/02 20:35:23;;;;;;;10.68;6.78;;;6.10;99.90;;;;;;5093463;28;20028;-86
2022/04/02 20:37:49;;;;;;;10.95;7.20;;;6.20;99.90;;;;;;5092127;28;20121;-87
2022/04/02 20:40:15;;;;;;;11.73;7.10;;;6.20;99.90;;;;;;5092113;28;20025;-86
2022/04/02 20:42:41;;;;;;;9.52;6.38;;;6.20;99.90;;;;;;5093624;28;20020;-86
2022/04/02 20:45:11;;;;;;;28.95;12.50;;;6.20;99.90;;;;;;5092224;28;20050;-87
2022/04/02 20:47:39;;;;;;;33.78;12.57;;;6.10;99.90;;;;;;5093616;28;20032;-86
2022/04/02 20:50:05;;;;;;;18.83;9.02;;;6.10;99.90;;;;;;5092477;28;20497;-87
2022/04/02 20:52:31;;;;;;;136.25;40.72;;;6.20;99.90;;;;;;5092398;28;20032;-87
2022/04/02 20:54:57;;;;;;;193.13;56.50;;;6.20;99.90;;;;;;5093421;28;20050;-86
2022/04/02 20:57:22;;;;;;;40.38;14.82;;;6.10;99.90;;;;;;5093409;28;20363;-86
2022/04/02 20:59:48;;;;;;;32.40;12.30;;;6.10;99.90;;;;;;5092307;28;20052;-86
2022/04/02 21:02:14;;;;;;;8.38;5.60;;;6.10;99.90;;;;;;5093447;28;20020;-86
2022/04/02 21:04:39;;;;;;;10.82;6.88;;;6.10;99.90;;;;;;5095876;28;20027;-86
2022/04/02 21:07:05;;;;;;;8.48;5.97;;;6.10;99.90;;;;;;5097801;28;20355;-86
2022/04/02 21:09:32;;;;;;;36.97;16.30;;;6.00;99.90;;;;;;5096230;28;20115;-86
2022/04/02 21:11:58;;;;;;;34.83;14.85;;;6.00;99.90;;;;;;5097313;28;20028;-86
2022/04/02 21:14:26;;;;;;;14.35;8.07;;;6.00;99.90;;;;;;5097341;28;20044;-86
2022/04/02 21:16:52;;;;;;;8.65;5.50;;;6.00;99.90;;;;;;5095624;28;20081;-86
2022/04/02 21:19:20;;;;;;;8.10;5.90;;;6.10;99.90;;;;;;5097558;28;20016;-86
2022/04/02 21:21:49;;;;;;;11.90;6.53;;;5.90;99.90;;;;;;5095752;28;20031;-87
2022/04/02 21:24:16;;;;;;;8.68;6.72;;;6.00;99.90;;;;;;5096911;28;20016;-86
2022/04/02 21:26:42;;;;;;;9.38;6.47;;;5.90;99.90;;;;;;5096991;28;20031;-86
2022/04/02 21:29:08;;;;;;;9.18;6.50;;;5.90;99.90;;;;;;5095942;28;20024;-87
2022/04/02 21:31:34;;;;;;;8.82;6.25;;;5.90;99.90;;;;;;5097035;28;20024;-86
2022/04/02 21:34:01;;;;;;;9.88;6.03;;;6.00;99.90;;;;;;5097320;28;20024;-86
2022/04/02 21:36:27;;;;;;;9.57;5.93;;;6.00;99.90;;;;;;5095970;28;20082;-86
2022/04/02 21:38:53;;;;;;;6.20;5.13;;;6.00;99.90;;;;;;5096890;28;20016;-86
2022/04/02 21:41:18;;;;;;;8.40;5.65;;;6.00;99.90;;;;;;5095828;28;20028;-86
2022/04/02 21:43:44;;;;;;;7.38;5.68;;;5.90;99.90;;;;;;5095600;28;20027;-85
2022/04/02 21:46:11;;;;;;;22.25;12.70;;;5.90;99.90;;;;;;5095826;28;20051;-86
2022/04/02 21:48:37;;;;;;;8.63;5.25;;;5.80;99.90;;;;;;5095697;28;20028;-86
2022/04/02 21:51:02;;;;;;;7.20;5.50;;;5.90;99.90;;;;;;5095647;28;20024;-86
2022/04/02 21:53:28;;;;;;;8.57;5.40;;;5.80;99.90;;;;;;5095698;28;20390;-87
2022/04/02 21:55:54;;;;;;;10.30;5.22;;;5.80;99.90;;;;;;5095490;28;20117;-87
2022/04/02 21:58:19;;;;;;;8.23;5.05;;;5.80;99.90;;;;;;5096561;28;20020;-87
2022/04/02 22:00:54;;;;;;;7.40;5.15;;;5.70;99.90;;;;;;5095614;28;20497;-87
2022/04/02 22:03:21;;;;;;;7.15;5.13;;;5.70;99.90;;;;;;5095554;28;20121;-86
2022/04/02 22:05:48;;;;;;;7.50;5.88;;;5.70;99.90;;;;;;5095357;28;20020;-87
2022/04/02 22:08:17;;;;;;;7.53;5.43;;;5.70;99.90;;;;;;5096798;28;20032;-86
2022/04/02 22:10:43;;;;;;;6.72;5.18;;;5.70;99.90;;;;;;5095309;28;20062;-87
2022/04/02 22:13:09;;;;;;;6.93;5.15;;;5.70;99.90;;;;;;5095413;28;20024;-87
2022/04/02 22:15:37;;;;;;;8.20;5.40;;;5.80;99.90;;;;;;5094950;28;20024;-86
2022/04/02 22:18:10;;;;;;;6.50;5.00;;;5.80;99.90;;;;;;5095074;28;20083;-86
2022/04/02 22:20:37;;;;;;;6.38;5.00;;;5.90;99.90;;;;;;5095150;28;20482;-87
2022/04/02 22:23:03;;;;;;;8.23;5.30;;;5.80;99.90;;;;;;5095092;28;20103;-86
2022/04/02 22:25:29;;;;;;;7.22;5.38;;;5.80;99.90;;;;;;5095231;28;20062;-86
2022/04/02 22:27:55;;;;;;;8.90;5.10;;;5.90;99.90;;;;;;5095071;28;20382;-86
2022/04/02 22:30:21;;;;;;;10.40;5.60;;;5.80;99.90;;;;;;5094977;28;20020;-86
2022/04/02 22:32:48;;;;;;;7.38;5.32;;;5.80;99.90;;;;;;5094826;28;20024;-86
2022/04/02 22:35:15;;;;;;;7.03;5.07;;;5.80;99.90;;;;;;5094798;28;20100;-87
2022/04/02 22:37:41;;;;;;;7.18;5.00;;;5.70;99.90;;;;;;5095904;28;20027;-87
2022/04/02 22:40:08;;;;;;;5.45;4.32;;;5.70;99.90;;;;;;5094742;28;20459;-86
2022/04/02 22:42:34;;;;;;;5.03;3.90;;;5.90;99.90;;;;;;5094730;28;20024;-87
2022/04/02 22:45:00;;;;;;;7.20;4.72;;;5.80;99.90;;;;;;5095797;28;20048;-87
2022/04/02 22:47:26;;;;;;;6.82;4.53;;;5.80;99.90;;;;;;5094375;28;20020;-86
2022/04/02 22:49:52;;;;;;;6.00;4.32;;;5.70;99.90;;;;;;5094905;28;20508;-87
2022/04/02 22:52:17;;;;;;;6.13;4.80;;;5.80;99.90;;;;;;5094494;28;20034;-86
2022/04/02 22:54:43;;;;;;;4.45;3.85;;;5.80;99.90;;;;;;5094579;28;20024;-86
2022/04/02 22:57:09;;;;;;;4.57;3.78;;;5.80;99.90;;;;;;5094367;28;20085;-86
2022/04/02 22:59:35;;;;;;;5.78;3.90;;;5.90;99.90;;;;;;5095662;28;20020;-86
2022/04/02 23:02:01;;;;;;;4.88;3.50;;;5.80;99.90;;;;;;5094597;28;20016;-86